Time;durP1;ratioP1;P1;durP2;ratioP2;P2;SDS_P1;SDS_P2;PMS_P1;PMS_P2;Temp;Humidity;BMP_temperature;BMP_pressure;BME280_temperature;BME280_humidity;BME280_pressure;Samples;Min_cycle;Max_cycle;Signal;HPM_P1;HPM_P2
2024/01/28 00:02:11;;;;;;;11.07;5.53;;;7.00;99.90;;;;;;5077919;28;20269;-85
2024/01/28 00:04:36;;;;;;;10.17;4.83;;;6.90;99.90;;;;;;5077677;28;20293;-84
2024/01/28 00:07:02;;;;;;;9.87;5.47;;;6.90;99.90;;;;;;5078056;28;20172;-84
2024/01/28 00:09:28;;;;;;;11.53;5.43;;;6.70;99.90;;;;;;5077571;28;20179;-84
2024/01/28 00:11:54;;;;;;;14.73;6.27;;;7.00;99.90;;;;;;5095944;28;20500;-83
2024/01/28 00:14:19;;;;;;;11.53;6.23;;;6.90;99.90;;;;;;5077786;28;20168;-84
2024/01/28 00:16:45;;;;;;;15.60;5.87;;;7.00;99.90;;;;;;5097575;28;20218;-83
2024/01/28 00:19:11;;;;;;;9.03;5.43;;;6.80;99.90;;;;;;5097699;28;20207;-84
2024/01/28 00:21:36;;;;;;;11.77;5.70;;;6.60;99.90;;;;;;5078050;28;20174;-83
2024/01/28 00:24:04;;;;;;;13.50;6.10;;;6.50;99.90;;;;;;5077581;28;20164;-84
2024/01/28 00:26:35;;;;;;;11.03;6.00;;;6.50;99.90;;;;;;5077498;28;20221;-83
2024/01/28 00:29:01;;;;;;;12.37;5.07;;;6.50;99.90;;;;;;5076764;28;20203;-84
2024/01/28 00:31:27;;;;;;;8.13;5.13;;;6.40;99.90;;;;;;5077453;28;20604;-84
2024/01/28 00:33:52;;;;;;;10.40;5.30;;;6.40;99.90;;;;;;5077935;28;20331;-83
2024/01/28 00:36:18;;;;;;;11.13;5.70;;;6.40;99.90;;;;;;5077544;28;20182;-84
2024/01/28 00:38:44;;;;;;;10.37;5.37;;;6.30;99.90;;;;;;5077670;28;20214;-84
2024/01/28 00:41:18;;;;;;;12.20;5.87;;;6.20;99.90;;;;;;5082980;28;20168;-82
2024/01/28 00:43:44;;;;;;;11.80;5.70;;;6.20;99.90;;;;;;5082055;28;20182;-84
2024/01/28 00:46:09;;;;;;;11.90;5.40;;;6.30;99.90;;;;;;5077028;28;20540;-83
2024/01/28 00:48:35;;;;;;;11.53;5.10;;;6.10;99.90;;;;;;5077708;28;20179;-83
2024/01/28 00:51:01;;;;;;;12.07;5.27;;;6.20;99.90;;;;;;5077243;28;20176;-83
2024/01/28 00:53:26;;;;;;;10.13;5.33;;;6.20;99.90;;;;;;5077381;28;20207;-84
2024/01/28 00:55:52;;;;;;;11.50;4.90;;;6.30;99.90;;;;;;5077119;28;20628;-83
2024/01/28 00:58:17;;;;;;;10.23;4.90;;;6.20;99.90;;;;;;5084591;28;20215;-84
2024/01/28 01:00:43;;;;;;;8.97;5.50;;;6.40;99.90;;;;;;5104265;28;20196;-85
2024/01/28 01:03:10;;;;;;;8.67;4.57;;;6.20;99.90;;;;;;5081064;28;20190;-86
2024/01/28 01:05:35;;;;;;;8.93;5.03;;;6.10;99.90;;;;;;5077639;28;20201;-86
2024/01/28 01:08:01;;;;;;;7.40;4.63;;;6.10;99.90;;;;;;5077651;28;20262;-86
2024/01/28 01:10:27;;;;;;;11.43;4.90;;;6.00;99.90;;;;;;5077260;28;20176;-85
2024/01/28 01:12:53;;;;;;;9.10;4.60;;;5.80;99.90;;;;;;5077404;28;20179;-87
2024/01/28 01:15:18;;;;;;;10.30;5.17;;;6.10;99.90;;;;;;5077048;28;20213;-87
2024/01/28 01:17:44;;;;;;;11.70;5.47;;;5.90;99.90;;;;;;5076724;28;20191;-89
2024/01/28 01:20:11;;;;;;;9.40;4.57;;;5.80;99.90;;;;;;5077050;28;20290;-86
2024/01/28 01:22:36;;;;;;;9.03;5.10;;;5.70;99.90;;;;;;5076999;28;20172;-85
2024/01/28 01:25:05;;;;;;;8.60;4.77;;;5.80;99.90;;;;;;5077085;28;20263;-87
2024/01/28 01:27:30;;;;;;;10.17;5.00;;;5.80;99.90;;;;;;5077258;28;21239;-86
2024/01/28 01:29:56;;;;;;;11.27;5.47;;;5.90;99.90;;;;;;5094909;28;20296;-85
2024/01/28 01:32:22;;;;;;;8.80;4.63;;;5.90;99.90;;;;;;5077414;28;20168;-85
2024/01/28 01:34:47;;;;;;;9.20;4.77;;;6.00;99.90;;;;;;5077213;28;20180;-84
2024/01/28 01:37:13;;;;;;;8.23;4.97;;;6.20;99.90;;;;;;5095324;28;20175;-86
2024/01/28 01:39:39;;;;;;;8.87;4.63;;;6.40;99.90;;;;;;5076661;28;20207;-86
2024/01/28 01:42:05;;;;;;;7.83;4.33;;;6.00;99.90;;;;;;5076901;28;20230;-86
2024/01/28 01:44:31;;;;;;;8.83;4.33;;;5.90;99.90;;;;;;5094893;28;20247;-86
2024/01/28 01:46:57;;;;;;;8.13;3.83;;;5.90;99.90;;;;;;5077220;28;20260;-84
2024/01/28 01:49:23;;;;;;;8.60;4.20;;;5.80;99.90;;;;;;5077544;28;20164;-86
2024/01/28 01:51:49;;;;;;;6.87;3.60;;;5.80;99.90;;;;;;5079445;28;20267;-84
2024/01/28 01:54:16;;;;;;;8.73;4.50;;;5.90;99.90;;;;;;5080127;28;20172;-83
2024/01/28 01:56:41;;;;;;;8.70;4.20;;;6.00;99.90;;;;;;5093663;28;20186;-81
2024/01/28 01:59:07;;;;;;;7.13;3.90;;;6.20;99.90;;;;;;5091360;28;20215;-84
2024/01/28 02:01:34;;;;;;;7.97;3.97;;;6.10;99.90;;;;;;5078308;28;20232;-84
2024/01/28 02:03:59;;;;;;;8.30;3.93;;;6.20;99.90;;;;;;5077043;28;20225;-85
2024/01/28 02:06:27;;;;;;;10.13;5.33;;;6.20;99.90;;;;;;5076355;28;20619;-85
2024/01/28 02:08:54;;;;;;;9.63;5.20;;;6.30;99.90;;;;;;5076147;28;20191;-85
2024/01/28 02:11:22;;;;;;;10.83;5.33;;;6.10;99.90;;;;;;5079348;28;20172;-84
2024/01/28 02:13:48;;;;;;;11.87;5.47;;;6.00;99.90;;;;;;5086755;28;20188;-85
2024/01/28 02:16:14;;;;;;;8.13;4.63;;;6.10;99.90;;;;;;5087039;28;20292;-84
2024/01/28 02:18:39;;;;;;;8.50;4.77;;;6.00;99.90;;;;;;5082106;28;20268;-86
2024/01/28 02:21:05;;;;;;;9.90;4.27;;;5.90;99.90;;;;;;5076524;28;20186;-85
2024/01/28 02:23:31;;;;;;;12.90;5.37;;;6.00;99.90;;;;;;5076451;28;20207;-84
2024/01/28 02:25:56;;;;;;;14.03;5.90;;;6.00;99.90;;;;;;5094333;28;20172;-86
2024/01/28 02:28:22;;;;;;;7.83;4.97;;;5.90;99.90;;;;;;5076092;28;20183;-86
2024/01/28 02:30:48;;;;;;;12.53;5.37;;;5.90;99.90;;;;;;5076357;28;20179;-84
2024/01/28 02:33:14;;;;;;;9.57;6.30;;;5.90;99.90;;;;;;5076207;28;20232;-85
2024/01/28 02:35:39;;;;;;;9.93;5.67;;;6.00;99.90;;;;;;5076442;28;20665;-84
2024/01/28 02:38:08;;;;;;;8.07;5.00;;;6.00;99.90;;;;;;5079271;28;20245;-83
2024/01/28 02:40:33;;;;;;;8.40;4.63;;;5.90;99.90;;;;;;5086436;28;20172;-84
2024/01/28 02:43:00;;;;;;;9.10;4.80;;;6.00;99.90;;;;;;5079941;28;20221;-85
2024/01/28 02:45:25;;;;;;;8.07;4.00;;;6.00;99.90;;;;;;5076048;28;20199;-83
2024/01/28 02:47:51;;;;;;;7.40;4.30;;;5.90;99.90;;;;;;5076645;28;20195;-87
2024/01/28 02:50:17;;;;;;;7.60;4.03;;;5.90;99.90;;;;;;5076249;28;20171;-85
2024/01/28 02:52:42;;;;;;;8.67;4.73;;;5.90;99.90;;;;;;5080328;28;20172;-84
2024/01/28 02:55:08;;;;;;;8.90;4.13;;;5.90;99.90;;;;;;5078182;28;20646;-85
2024/01/28 02:57:34;;;;;;;8.23;4.27;;;5.90;99.90;;;;;;5076378;28;20219;-85
2024/01/28 03:00:02;;;;;;;7.53;4.00;;;5.80;99.90;;;;;;5075902;28;20233;-87
2024/01/28 03:02:28;;;;;;;6.73;3.80;;;5.80;99.90;;;;;;5076091;28;20194;-85
2024/01/28 03:04:53;;;;;;;8.47;4.43;;;5.70;99.90;;;;;;5075559;28;20635;-86
2024/01/28 03:07:19;;;;;;;10.03;4.67;;;5.60;99.90;;;;;;5075432;28;20688;-84
2024/01/28 03:09:45;;;;;;;6.90;3.50;;;5.60;99.90;;;;;;5076211;28;20174;-84
2024/01/28 03:12:10;;;;;;;8.87;4.60;;;5.60;99.90;;;;;;5079463;28;20211;-84
2024/01/28 03:14:36;;;;;;;10.47;4.37;;;5.70;99.90;;;;;;5096171;28;20155;-87
2024/01/28 03:17:02;;;;;;;7.17;3.70;;;5.70;99.90;;;;;;5076318;28;20193;-86
2024/01/28 03:19:28;;;;;;;9.70;4.00;;;5.70;99.90;;;;;;5075717;28;20206;-84
2024/01/28 03:21:53;;;;;;;9.23;3.87;;;5.80;99.90;;;;;;5062455;28;20179;-82
2024/01/28 03:24:30;;;;;;;6.83;3.80;;;5.70;99.90;;;;;;5079394;28;20221;-85
2024/01/28 03:26:55;;;;;;;7.83;3.93;;;5.70;99.90;;;;;;5078541;28;20175;-83
2024/01/28 03:29:21;;;;;;;7.90;4.27;;;6.10;99.90;;;;;;5079470;28;20191;-85
2024/01/28 03:31:47;;;;;;;8.93;4.37;;;6.20;99.90;;;;;;5079009;28;20180;-85
2024/01/28 03:34:12;;;;;;;8.43;4.03;;;6.30;99.90;;;;;;5079273;28;20176;-84
2024/01/28 03:36:39;;;;;;;8.50;4.10;;;6.30;99.90;;;;;;5079092;28;20179;-84
2024/01/28 03:39:04;;;;;;;8.67;5.13;;;6.20;99.90;;;;;;5078855;28;20567;-86
2024/01/28 03:41:31;;;;;;;9.17;4.20;;;6.30;99.90;;;;;;5079185;28;20237;-86
2024/01/28 03:43:56;;;;;;;7.17;3.63;;;6.30;99.90;;;;;;5078760;28;20635;-85
2024/01/28 03:46:22;;;;;;;7.13;4.23;;;6.40;99.90;;;;;;5078989;28;20178;-86
2024/01/28 03:48:48;;;;;;;7.00;4.27;;;6.30;99.90;;;;;;5078993;28;20176;-85
2024/01/28 03:51:16;;;;;;;9.83;4.43;;;6.40;99.90;;;;;;5079190;28;20171;-85
2024/01/28 03:53:43;;;;;;;8.67;3.97;;;6.40;99.90;;;;;;5078858;28;20176;-86
2024/01/28 03:56:09;;;;;;;7.47;3.90;;;6.10;99.90;;;;;;5078926;28;20164;-86
2024/01/28 03:58:35;;;;;;;10.60;3.67;;;6.10;99.90;;;;;;5078087;28;20264;-85
2024/01/28 04:01:00;;;;;;;7.13;3.40;;;6.10;99.90;;;;;;5079054;28;20179;-85
2024/01/28 04:03:26;;;;;;;7.13;3.43;;;6.20;99.90;;;;;;5078966;28;20202;-84
2024/01/28 04:05:55;;;;;;;6.77;3.37;;;6.40;99.90;;;;;;5079448;28;20510;-86
2024/01/28 04:08:20;;;;;;;6.63;4.00;;;6.40;99.90;;;;;;5078685;28;20172;-85
2024/01/28 04:10:46;;;;;;;6.47;3.90;;;6.30;99.90;;;;;;5078542;28;20631;-85
2024/01/28 04:13:12;;;;;;;12.83;4.50;;;6.30;99.90;;;;;;5079022;28;20623;-86
2024/01/28 04:15:37;;;;;;;7.47;4.17;;;6.10;99.90;;;;;;5079263;28;20176;-84
2024/01/28 04:18:05;;;;;;;10.63;4.07;;;6.30;99.90;;;;;;5079047;28;20201;-86
2024/01/28 04:20:30;;;;;;;6.07;3.67;;;6.10;99.90;;;;;;5097187;28;20222;-85
2024/01/28 04:22:56;;;;;;;8.90;4.20;;;6.10;99.90;;;;;;5079574;28;20175;-86
2024/01/28 04:25:22;;;;;;;10.27;4.00;;;6.00;99.90;;;;;;5092437;28;20179;-86
2024/01/28 04:27:47;;;;;;;8.10;3.40;;;6.00;99.90;;;;;;5083492;28;20277;-88
2024/01/28 04:30:13;;;;;;;6.00;3.27;;;5.80;99.90;;;;;;5078543;28;20189;-84
2024/01/28 04:32:39;;;;;;;7.03;3.53;;;5.80;99.90;;;;;;5093130;28;20188;-83
2024/01/28 04:35:05;;;;;;;7.33;3.97;;;5.80;99.90;;;;;;5084943;28;20187;-85
2024/01/28 04:37:31;;;;;;;9.83;2.80;;;5.70;99.90;;;;;;5078293;28;20175;-86
2024/01/28 04:39:57;;;;;;;8.93;4.20;;;5.60;99.90;;;;;;5077398;28;20769;-85
2024/01/28 04:42:23;;;;;;;9.00;3.60;;;5.60;99.90;;;;;;5078116;28;20200;-85
2024/01/28 04:44:49;;;;;;;5.73;3.03;;;5.70;99.90;;;;;;5095990;28;20179;-86
2024/01/28 04:47:15;;;;;;;5.67;3.50;;;5.50;99.90;;;;;;5096235;28;20237;-85
2024/01/28 04:49:41;;;;;;;6.67;3.73;;;5.70;99.90;;;;;;5077629;28;20916;-87
2024/01/28 04:52:07;;;;;;;7.70;4.23;;;5.60;99.90;;;;;;5078279;28;20172;-83
2024/01/28 04:54:33;;;;;;;8.40;4.20;;;5.60;99.90;;;;;;5095785;28;20183;-85
2024/01/28 04:57:01;;;;;;;7.73;4.60;;;5.50;99.90;;;;;;5077897;28;20172;-84
2024/01/28 04:59:27;;;;;;;8.90;4.93;;;5.40;99.90;;;;;;5077672;28;20290;-84
2024/01/28 05:01:54;;;;;;;8.57;5.00;;;5.50;99.90;;;;;;5077890;28;20239;-86
2024/01/28 05:04:19;;;;;;;10.90;4.40;;;5.40;99.90;;;;;;5077389;28;20199;-85
2024/01/28 05:06:45;;;;;;;8.33;4.43;;;5.60;99.90;;;;;;5077489;28;20620;-86
2024/01/28 05:09:11;;;;;;;7.67;4.23;;;5.50;99.90;;;;;;5077523;28;20211;-85
2024/01/28 05:11:36;;;;;;;8.13;3.60;;;5.60;99.90;;;;;;5077681;28;20182;-85
2024/01/28 05:14:02;;;;;;;9.50;3.70;;;5.60;99.90;;;;;;5077501;28;20172;-84
2024/01/28 05:16:29;;;;;;;5.27;2.93;;;5.60;99.90;;;;;;5095297;28;20254;-84
2024/01/28 05:18:55;;;;;;;6.50;3.47;;;5.60;99.90;;;;;;5077279;28;20306;-84
2024/01/28 05:21:21;;;;;;;8.43;4.07;;;5.70;99.90;;;;;;5077527;28;20167;-85
2024/01/28 05:23:47;;;;;;;5.00;3.23;;;5.70;99.90;;;;;;5077486;28;20174;-83
2024/01/28 05:26:17;;;;;;;7.23;3.40;;;6.00;99.90;;;;;;5077625;28;20536;-86
2024/01/28 05:28:42;;;;;;;7.63;3.47;;;5.80;99.90;;;;;;5077700;28;20632;-84
2024/01/28 05:31:09;;;;;;;6.60;3.37;;;5.90;99.90;;;;;;5078336;28;20178;-84
2024/01/28 05:33:37;;;;;;;8.40;3.67;;;6.00;99.90;;;;;;5079166;28;20237;-85
2024/01/28 05:36:13;;;;;;;5.53;3.37;;;5.90;99.90;;;;;;5079525;28;20599;-84
2024/01/28 05:38:39;;;;;;;6.20;3.67;;;6.00;99.90;;;;;;5090120;28;20219;-85
2024/01/28 05:41:09;;;;;;;6.53;3.70;;;5.80;99.90;;;;;;5096487;28;20651;-83
2024/01/28 05:43:35;;;;;;;5.13;3.37;;;5.90;99.90;;;;;;5114555;28;20180;-83
2024/01/28 05:46:02;;;;;;;6.10;3.50;;;5.80;99.90;;;;;;5097314;28;20175;-85
2024/01/28 05:48:28;;;;;;;7.20;3.60;;;5.70;99.90;;;;;;5097339;28;20175;-84
2024/01/28 05:50:53;;;;;;;6.67;3.50;;;5.70;99.90;;;;;;5095299;28;20176;-83
2024/01/28 05:53:19;;;;;;;6.13;3.17;;;5.70;99.90;;;;;;5085156;28;20203;-84
2024/01/28 05:55:45;;;;;;;7.07;3.43;;;5.50;99.90;;;;;;5076843;28;20172;-84
2024/01/28 05:58:11;;;;;;;6.13;3.60;;;5.50;99.90;;;;;;5076108;28;20230;-84
2024/01/28 06:00:36;;;;;;;7.63;4.13;;;5.60;99.90;;;;;;5076524;28;20203;-84
2024/01/28 06:03:04;;;;;;;8.90;3.43;;;5.50;99.90;;;;;;5076732;28;20179;-84
2024/01/28 06:05:29;;;;;;;6.23;3.13;;;5.50;99.90;;;;;;5076469;28;20178;-84
2024/01/28 06:07:55;;;;;;;7.00;3.03;;;5.60;99.90;;;;;;5076920;28;20262;-84
2024/01/28 06:10:20;;;;;;;4.57;3.13;;;5.60;99.90;;;;;;5076484;28;20583;-84
2024/01/28 06:12:46;;;;;;;6.70;2.70;;;5.50;99.90;;;;;;5077064;28;20180;-84
2024/01/28 06:15:12;;;;;;;5.40;2.87;;;5.50;99.90;;;;;;5081478;28;20258;-83
2024/01/28 06:17:38;;;;;;;6.17;3.00;;;5.60;99.90;;;;;;5096203;28;20199;-83
2024/01/28 06:20:05;;;;;;;7.63;3.40;;;5.40;99.90;;;;;;5075823;28;20278;-85
2024/01/28 06:22:31;;;;;;;9.03;3.63;;;5.40;99.90;;;;;;5076237;28;20243;-84
2024/01/28 06:25:01;;;;;;;5.67;2.73;;;5.60;99.90;;;;;;5076207;28;20228;-83
2024/01/28 06:27:27;;;;;;;6.87;3.23;;;5.70;99.90;;;;;;5076002;28;20254;-86
2024/01/28 06:29:53;;;;;;;5.97;2.50;;;5.60;99.90;;;;;;5076290;28;20618;-84
2024/01/28 06:32:21;;;;;;;5.37;2.90;;;5.70;99.90;;;;;;5076817;28;20260;-85
2024/01/28 06:34:47;;;;;;;5.17;3.20;;;5.70;99.90;;;;;;5094406;28;20159;-83
2024/01/28 06:37:12;;;;;;;5.77;2.73;;;5.70;99.90;;;;;;5076176;28;20167;-85
2024/01/28 06:39:38;;;;;;;6.87;3.43;;;5.70;99.90;;;;;;5076559;28;20206;-86
2024/01/28 06:42:04;;;;;;;6.43;3.20;;;5.70;99.90;;;;;;5076376;28;20215;-86
2024/01/28 06:44:32;;;;;;;6.53;3.50;;;5.80;99.90;;;;;;5076235;28;20178;-84
2024/01/28 06:46:59;;;;;;;6.23;3.43;;;5.90;99.90;;;;;;5075753;28;20171;-86
2024/01/28 06:49:25;;;;;;;5.33;3.17;;;5.90;99.90;;;;;;5075838;28;20184;-85
2024/01/28 06:51:52;;;;;;;4.83;3.40;;;5.80;99.90;;;;;;5075847;28;20176;-85
2024/01/28 06:54:21;;;;;;;7.50;2.70;;;5.80;99.90;;;;;;5075357;28;20247;-87
2024/01/28 06:56:48;;;;;;;5.13;3.03;;;5.90;99.90;;;;;;5075735;28;20175;-85
2024/01/28 06:59:14;;;;;;;5.87;3.40;;;6.00;99.90;;;;;;5075395;28;20227;-86
2024/01/28 07:01:40;;;;;;;5.00;3.00;;;5.90;99.90;;;;;;5075983;28;20191;-85
2024/01/28 07:04:06;;;;;;;6.00;3.03;;;5.60;99.90;;;;;;5075497;28;20509;-86
2024/01/28 07:06:32;;;;;;;5.03;3.00;;;5.70;99.90;;;;;;5075634;28;20623;-85
2024/01/28 07:08:57;;;;;;;7.57;3.33;;;5.80;99.90;;;;;;5077382;28;20179;-86
2024/01/28 07:11:23;;;;;;;5.70;3.10;;;5.70;99.90;;;;;;5084288;28;20695;-86
2024/01/28 07:13:49;;;;;;;6.50;3.90;;;5.70;99.90;;;;;;5083525;28;20631;-82
2024/01/28 07:16:15;;;;;;;8.43;3.63;;;5.70;99.90;;;;;;5080997;28;20179;-85
2024/01/28 07:18:40;;;;;;;6.30;3.30;;;5.70;99.90;;;;;;5079161;28;20356;-87
2024/01/28 07:21:06;;;;;;;7.90;4.33;;;5.60;99.90;;;;;;5076460;28;20179;-85
2024/01/28 07:23:32;;;;;;;6.57;4.33;;;5.50;99.90;;;;;;5075904;28;20174;-85
2024/01/28 07:25:57;;;;;;;7.00;4.47;;;5.60;99.90;;;;;;5075921;28;20663;-84
2024/01/28 07:28:23;;;;;;;9.93;5.27;;;5.40;99.90;;;;;;5076382;28;20225;-87
2024/01/28 07:30:49;;;;;;;6.60;4.90;;;5.40;99.90;;;;;;5077050;28;20172;-86
2024/01/28 07:33:15;;;;;;;5.63;3.67;;;5.10;99.90;;;;;;5076018;28;20557;-85
2024/01/28 07:35:41;;;;;;;7.73;4.23;;;5.10;99.90;;;;;;5079005;28;20193;-87
2024/01/28 07:38:11;;;;;;;13.53;6.20;;;5.10;99.90;;;;;;5084422;28;20200;-85
2024/01/28 07:40:37;;;;;;;10.00;5.80;;;5.00;99.90;;;;;;5080937;28;20175;-84
2024/01/28 07:43:04;;;;;;;8.67;5.47;;;5.00;99.90;;;;;;5076584;28;20164;-85
2024/01/28 07:45:29;;;;;;;10.80;5.50;;;5.10;99.90;;;;;;5077341;28;20183;-88
2024/01/28 07:47:55;;;;;;;9.10;4.80;;;5.10;99.90;;;;;;5080783;28;20167;-86
2024/01/28 07:50:20;;;;;;;8.83;5.03;;;4.90;99.90;;;;;;5085228;28;20179;-85
2024/01/28 07:52:46;;;;;;;9.50;4.83;;;4.80;99.90;;;;;;5080052;28;20168;-86
2024/01/28 07:55:14;;;;;;;7.67;4.53;;;4.90;99.90;;;;;;5082098;28;20171;-86
2024/01/28 07:57:40;;;;;;;7.27;4.63;;;4.70;99.90;;;;;;5099513;28;20192;-84
2024/01/28 08:00:10;;;;;;;10.77;4.77;;;4.80;99.90;;;;;;5081879;28;20269;-86
2024/01/28 08:02:35;;;;;;;7.17;4.67;;;4.80;99.90;;;;;;5081294;28;20175;-87
2024/01/28 08:05:01;;;;;;;8.53;4.87;;;4.60;99.90;;;;;;5082991;28;20172;-87
2024/01/28 08:07:32;;;;;;;10.67;4.70;;;4.70;99.90;;;;;;5085910;28;20226;-86
2024/01/28 08:09:58;;;;;;;9.13;4.97;;;4.80;99.90;;;;;;5083766;28;20171;-87
2024/01/28 08:12:23;;;;;;;9.20;5.43;;;5.00;99.90;;;;;;5081876;28;20505;-87
2024/01/28 08:14:49;;;;;;;8.03;5.10;;;5.00;99.90;;;;;;5082617;28;20604;-84
2024/01/28 08:17:14;;;;;;;9.70;5.13;;;5.00;99.90;;;;;;5082429;28;20557;-84
2024/01/28 08:19:40;;;;;;;11.17;5.70;;;5.10;99.90;;;;;;5083675;28;20302;-85
2024/01/28 08:22:06;;;;;;;10.60;5.40;;;5.10;99.90;;;;;;5091247;28;20190;-83
2024/01/28 08:24:32;;;;;;;7.50;4.77;;;5.10;99.90;;;;;;5104681;28;20259;-86
2024/01/28 08:26:58;;;;;;;9.63;4.87;;;5.40;99.90;;;;;;5084830;28;20168;-85
2024/01/28 08:29:25;;;;;;;8.33;4.90;;;5.40;99.90;;;;;;5084415;28;20167;-88
2024/01/28 08:31:53;;;;;;;10.07;4.70;;;5.60;99.90;;;;;;5084775;28;20619;-88
2024/01/28 08:34:19;;;;;;;7.80;4.60;;;5.70;99.90;;;;;;5084191;28;20182;-86
2024/01/28 08:36:45;;;;;;;7.30;4.80;;;6.00;99.90;;;;;;5086373;28;20202;-84
2024/01/28 08:39:22;;;;;;;6.83;4.00;;;6.00;99.90;;;;;;5084299;28;20230;-86
2024/01/28 08:41:48;;;;;;;7.63;4.30;;;6.20;99.90;;;;;;5086564;28;20294;-87
2024/01/28 08:44:15;;;;;;;8.23;4.60;;;6.40;99.90;;;;;;5084458;28;20175;-88
2024/01/28 08:46:40;;;;;;;7.67;4.27;;;6.40;99.90;;;;;;5082106;28;20172;-90
2024/01/28 08:49:06;;;;;;;5.90;3.77;;;6.60;99.90;;;;;;5080002;28;20661;-87
2024/01/28 08:51:33;;;;;;;10.50;4.30;;;6.80;99.90;;;;;;5079089;28;20167;-86
2024/01/28 08:53:59;;;;;;;8.27;4.03;;;6.90;99.90;;;;;;5078331;28;20171;-87
2024/01/28 08:56:25;;;;;;;6.73;4.07;;;7.00;99.90;;;;;;5096421;28;20198;-86
2024/01/28 08:58:51;;;;;;;5.60;3.60;;;7.30;99.90;;;;;;5077837;28;20264;-87
2024/01/28 09:01:17;;;;;;;6.30;4.23;;;7.10;99.90;;;;;;5077833;28;20321;-88
2024/01/28 09:03:44;;;;;;;9.60;5.07;;;7.10;99.90;;;;;;5079279;28;20183;-87
2024/01/28 09:06:11;;;;;;;11.77;5.50;;;7.20;99.90;;;;;;5077835;28;20239;-87
2024/01/28 09:08:36;;;;;;;9.17;5.33;;;7.30;99.90;;;;;;5078289;28;20248;-88
2024/01/28 09:11:02;;;;;;;8.30;3.80;;;7.50;99.90;;;;;;5077634;28;20215;-86
2024/01/28 09:13:27;;;;;;;9.07;4.67;;;7.60;99.90;;;;;;5077665;28;20176;-85
2024/01/28 09:15:53;;;;;;;7.10;4.37;;;7.90;99.90;;;;;;5076800;28;20503;-88
2024/01/28 09:18:19;;;;;;;8.63;5.27;;;8.00;99.90;;;;;;5077564;28;20690;-87
2024/01/28 09:20:45;;;;;;;7.73;4.30;;;8.10;99.90;;;;;;5078179;28;20178;-86
2024/01/28 09:23:11;;;;;;;10.83;4.90;;;8.20;99.90;;;;;;5077206;28;20172;-85
2024/01/28 09:25:36;;;;;;;11.20;4.83;;;8.30;99.90;;;;;;5077111;28;20171;-87
2024/01/28 09:28:03;;;;;;;9.30;4.43;;;8.20;99.90;;;;;;5076804;28;20258;-85
2024/01/28 09:30:28;;;;;;;6.23;3.60;;;8.00;99.90;;;;;;5076325;28;20179;-85
2024/01/28 09:32:54;;;;;;;7.80;4.43;;;8.20;99.90;;;;;;5077308;28;20188;-85
2024/01/28 09:35:20;;;;;;;8.37;3.83;;;8.20;99.90;;;;;;5078073;28;20171;-85
2024/01/28 09:37:46;;;;;;;5.70;4.03;;;8.40;99.90;;;;;;5079528;28;20183;-85
2024/01/28 09:40:13;;;;;;;6.20;4.30;;;8.30;99.90;;;;;;5077202;28;20184;-86
2024/01/28 09:42:55;;;;;;;7.47;4.20;;;8.40;99.90;;;;;;5094962;28;20164;-82
2024/01/28 09:45:21;;;;;;;7.87;4.77;;;8.40;99.90;;;;;;5076222;28;20171;-85
2024/01/28 09:47:48;;;;;;;9.00;5.17;;;8.60;99.90;;;;;;5076348;28;20271;-86
2024/01/28 09:50:14;;;;;;;6.93;4.47;;;8.80;99.90;;;;;;5076565;28;20623;-85
2024/01/28 09:52:40;;;;;;;10.63;5.57;;;8.90;99.90;;;;;;5076695;28;20205;-84
2024/01/28 09:55:06;;;;;;;9.10;5.37;;;9.10;99.90;;;;;;5076178;28;20179;-87
2024/01/28 09:57:32;;;;;;;8.20;5.37;;;8.90;99.90;;;;;;5075916;28;20195;-85
2024/01/28 09:59:58;;;;;;;7.87;4.97;;;9.00;99.90;;;;;;5075879;28;20622;-85
2024/01/28 10:02:25;;;;;;;7.00;4.10;;;9.10;99.90;;;;;;5076492;28;20175;-85
2024/01/28 10:04:55;;;;;;;8.50;4.60;;;9.00;99.90;;;;;;5075969;28;20180;-85
2024/01/28 10:07:22;;;;;;;7.17;4.60;;;9.00;99.90;;;;;;5076352;28;20240;-85
2024/01/28 10:09:50;;;;;;;9.60;5.60;;;9.10;99.90;;;;;;5076401;28;20225;-85
2024/01/28 10:12:17;;;;;;;7.60;5.20;;;9.10;99.90;;;;;;5075644;28;20203;-87
2024/01/28 10:14:55;;;;;;;9.43;5.23;;;9.10;99.90;;;;;;5076027;28;20229;-85
2024/01/28 10:17:22;;;;;;;8.23;4.47;;;9.30;99.90;;;;;;5076515;28;20171;-85
2024/01/28 10:19:49;;;;;;;6.63;4.20;;;9.40;99.90;;;;;;5094917;28;20234;-88
2024/01/28 10:22:15;;;;;;;6.17;3.77;;;9.40;99.90;;;;;;5076307;28;20233;-87
2024/01/28 10:24:44;;;;;;;9.90;4.40;;;9.50;99.90;;;;;;5076101;28;20215;-86
2024/01/28 10:27:13;;;;;;;7.03;4.23;;;9.50;99.90;;;;;;5076847;28;20164;-85
2024/01/28 10:29:43;;;;;;;6.83;4.27;;;9.50;99.90;;;;;;5084927;28;20180;-83
2024/01/28 10:32:09;;;;;;;9.10;4.10;;;9.30;99.90;;;;;;5094572;28;20176;-84
2024/01/28 10:34:35;;;;;;;8.50;4.37;;;9.50;99.90;;;;;;5078040;28;20187;-87
2024/01/28 10:37:04;;;;;;;9.07;4.80;;;9.50;99.90;;;;;;5076935;28;20207;-87
2024/01/28 10:39:34;;;;;;;7.70;4.00;;;9.50;99.90;;;;;;5076212;28;20216;-84
2024/01/28 10:42:04;;;;;;;5.47;3.73;;;9.70;99.90;;;;;;5076067;28;20257;-85
2024/01/28 10:44:34;;;;;;;5.73;3.67;;;9.60;99.90;;;;;;5077936;28;20180;-86
2024/01/28 10:47:00;;;;;;;7.83;3.60;;;9.70;99.90;;;;;;5076067;28;20183;-86
2024/01/28 10:49:35;;;;;;;6.97;4.17;;;9.80;99.90;;;;;;5076684;28;20260;-86
2024/01/28 10:52:03;;;;;;;8.50;5.73;;;9.90;99.90;;;;;;5075953;28;20168;-86
2024/01/28 10:54:29;;;;;;;8.30;3.30;;;9.90;99.90;;;;;;5076857;28;20180;-85
2024/01/28 10:56:57;;;;;;;7.30;3.83;;;10.10;99.90;;;;;;5077347;28;20263;-86
2024/01/28 10:59:23;;;;;;;6.30;3.60;;;10.20;99.90;;;;;;5080285;28;20326;-85
2024/01/28 11:01:51;;;;;;;10.20;7.10;;;10.30;99.90;;;;;;5085987;28;20180;-84
2024/01/28 11:04:17;;;;;;;5.30;3.23;;;10.30;99.90;;;;;;5087001;28;20186;-84
2024/01/28 11:06:45;;;;;;;5.43;3.23;;;10.30;99.90;;;;;;5088936;28;20204;-87
2024/01/28 11:09:11;;;;;;;5.37;2.93;;;10.20;99.90;;;;;;5081922;28;20629;-86
2024/01/28 11:11:37;;;;;;;5.57;3.23;;;10.40;99.90;;;;;;5075908;28;20164;-85
2024/01/28 11:14:12;;;;;;;6.13;2.90;;;10.40;99.90;;;;;;5075958;28;20180;-86
2024/01/28 11:16:40;;;;;;;5.70;2.83;;;10.40;99.90;;;;;;5078459;28;20168;-87
2024/01/28 11:19:07;;;;;;;5.97;3.10;;;10.40;99.90;;;;;;5078167;28;20199;-86
2024/01/28 11:21:40;;;;;;;6.83;3.13;;;10.40;99.90;;;;;;5075710;28;20554;-84
2024/01/28 11:24:09;;;;;;;7.93;3.00;;;10.50;99.90;;;;;;5076706;28;20198;-85
2024/01/28 11:26:38;;;;;;;5.63;3.10;;;10.50;99.90;;;;;;5076257;28;20197;-85
2024/01/28 11:29:08;;;;;;;4.57;2.73;;;10.80;99.90;;;;;;5095879;28;20738;-85
2024/01/28 11:31:38;;;;;;;5.73;3.00;;;10.70;99.90;;;;;;5076265;28;20173;-87
2024/01/28 11:34:20;;;;;;;4.57;2.60;;;10.80;99.90;;;;;;5076764;28;20174;-87
2024/01/28 11:36:51;;;;;;;4.80;2.60;;;10.60;99.90;;;;;;5075216;28;20219;-87
2024/01/28 11:39:30;;;;;;;5.00;2.67;;;10.60;99.90;;;;;;5076346;28;20215;-87
2024/01/28 11:41:56;;;;;;;5.43;3.00;;;10.60;99.90;;;;;;5095809;28;20176;-85
2024/01/28 11:44:23;;;;;;;6.77;3.03;;;10.80;99.90;;;;;;5079604;28;20205;-86
2024/01/28 11:46:50;;;;;;;7.07;3.13;;;10.70;99.90;;;;;;5079959;28;20173;-85
2024/01/28 11:49:16;;;;;;;4.47;2.80;;;10.90;99.90;;;;;;5081817;28;20180;-85
2024/01/28 11:51:41;;;;;;;5.23;2.40;;;11.00;99.90;;;;;;5078270;28;20231;-87
2024/01/28 11:54:07;;;;;;;7.57;3.20;;;11.10;99.90;;;;;;5078878;28;20183;-86
2024/01/28 11:56:36;;;;;;;5.87;2.90;;;11.30;99.90;;;;;;5079033;28;20538;-84
2024/01/28 11:59:03;;;;;;;7.80;3.20;;;11.20;99.90;;;;;;5078347;28;20222;-84
2024/01/28 12:01:29;;;;;;;6.93;3.20;;;11.30;99.90;;;;;;5079162;28;20263;-85
2024/01/28 12:03:55;;;;;;;4.67;2.93;;;11.50;99.90;;;;;;5078518;28;20251;-84
2024/01/28 12:06:22;;;;;;;6.23;3.27;;;11.50;99.90;;;;;;5079191;28;20200;-86
2024/01/28 12:08:48;;;;;;;6.03;3.60;;;11.50;99.90;;;;;;5097574;28;20628;-87
2024/01/28 12:11:17;;;;;;;5.43;3.03;;;11.70;99.90;;;;;;5079958;28;20262;-85
2024/01/28 12:13:43;;;;;;;8.37;4.00;;;11.70;99.90;;;;;;5080319;28;20201;-85
2024/01/28 12:16:09;;;;;;;7.50;3.40;;;11.80;99.90;;;;;;5099104;28;20168;-85
2024/01/28 12:18:41;;;;;;;5.43;3.20;;;11.90;99.90;;;;;;5079100;28;20230;-86
2024/01/28 12:21:46;;;;;;;9.47;3.03;;;11.90;99.90;;;;;;5080310;28;20187;-86
2024/01/28 12:24:12;;;;;;;6.53;3.40;;;11.90;99.90;;;;;;5079138;28;20174;-88
2024/01/28 12:26:39;;;;;;;4.77;3.20;;;12.10;99.90;;;;;;5077988;28;20654;-87
2024/01/28 12:29:05;;;;;;;4.53;2.90;;;12.00;99.90;;;;;;5079796;28;20728;-87
2024/01/28 12:31:31;;;;;;;4.47;2.90;;;12.00;99.90;;;;;;5079343;28;20199;-85
2024/01/28 12:33:57;;;;;;;5.57;3.07;;;12.00;99.90;;;;;;5078097;28;20173;-86
2024/01/28 12:36:22;;;;;;;5.67;3.17;;;12.00;99.90;;;;;;5096256;28;20171;-85
2024/01/28 12:38:48;;;;;;;5.10;3.00;;;12.20;99.90;;;;;;5079483;28;20209;-85
2024/01/28 12:41:14;;;;;;;5.80;3.17;;;12.50;99.90;;;;;;5077975;28;20599;-86
2024/01/28 12:43:43;;;;;;;6.73;3.17;;;12.40;99.90;;;;;;5077298;28;20700;-86
2024/01/28 12:46:08;;;;;;;4.77;2.87;;;12.60;99.90;;;;;;5077335;28;20581;-85
2024/01/28 12:48:34;;;;;;;4.90;2.93;;;12.70;99.90;;;;;;5077140;28;20259;-87
2024/01/28 12:51:00;;;;;;;4.70;3.10;;;12.80;99.90;;;;;;5077421;28;20609;-84